Paynesville, Minnesota
Current Conditions -  °F | °C
As of 11:14 AM on Sunday 23 Nov 2014 (Local Time) from KPEX Reporting Station
Drizzle Drizzle  
Wind Chill: 28°   Ceiling: 5000
Heat Index: 34°   Visibility: 7mi
Dew Point: 32°   Wind: 7mph
Humidity: 92%   Direction: 230°SW
Pressure: 29.46"   Gusts: NA
Location:  45.38°N, 94.71°W
Report Text: KPEX 231714Z AUTO 23006KT 7SM -DZ SCT040 SCT046 OVC050 01/00 A2946 RMK AO2 T00130001
Loading
Personal Weather Stations






























Interactive Weather Map New forecast layout! Learn more

10-Day Weather Forecast

Advertisements
Track Severe Weather on mobile